createdAt,value
2023-04-18T00:00:10.318Z,8.88
2023-04-18T00:03:06.729Z,8.87
2023-04-18T00:05:38.787Z,8.88
2023-04-18T00:08:10.733Z,8.87
2023-04-18T00:10:42.645Z,8.86
2023-04-18T00:13:14.483Z,8.85
2023-04-18T00:15:46.413Z,8.84
2023-04-18T00:18:18.191Z,8.83
2023-04-18T00:20:50.153Z,8.84
2023-04-18T00:23:22.419Z,8.84
2023-04-18T00:25:54.192Z,8.84
2023-04-18T00:28:24.790Z,8.84
2023-04-18T00:30:56.713Z,8.81
2023-04-18T00:33:28.581Z,8.80
2023-04-18T00:36:00.352Z,8.79
2023-04-18T00:38:32.160Z,8.79
2023-04-18T00:41:03.960Z,8.79
2023-04-18T00:43:35.987Z,8.79
2023-04-18T00:46:06.508Z,8.78
2023-04-18T00:48:40.027Z,8.75
2023-04-18T00:51:12.569Z,8.74
2023-04-18T00:53:45.517Z,8.72
2023-04-18T00:56:18.138Z,8.71
2023-04-18T00:58:50.230Z,8.71
2023-04-18T01:01:23.554Z,8.72
2023-04-18T01:03:55.823Z,8.71
2023-04-18T01:06:28.405Z,8.70
2023-04-18T01:09:00.281Z,8.71
2023-04-18T01:11:32.311Z,8.72
2023-04-18T01:14:03.310Z,8.71
2023-04-18T01:16:37.047Z,8.69
2023-04-18T01:19:09.212Z,8.69
2023-04-18T01:21:44.023Z,8.68
2023-04-18T01:24:18.633Z,8.68
2023-04-18T01:26:52.489Z,8.67
2023-04-18T01:29:24.339Z,8.67
2023-04-18T01:31:56.058Z,8.67
2023-04-18T01:34:27.917Z,8.66
2023-04-18T01:37:00.277Z,8.67
2023-04-18T01:39:32.184Z,8.66
2023-04-18T01:42:04.012Z,8.68
2023-04-18T01:44:35.742Z,8.70
2023-04-18T01:47:07.781Z,8.70
2023-04-18T01:49:42.879Z,8.72
2023-04-18T01:52:15.265Z,8.73
2023-04-18T01:54:47.163Z,8.73
2023-04-18T01:57:19.097Z,8.73
2023-04-18T01:59:51.109Z,8.73
2023-04-18T02:02:23.627Z,8.73
2023-04-18T02:04:57.028Z,8.73
2023-04-18T02:07:28.890Z,8.73
2023-04-18T02:10:01.586Z,8.74
2023-04-18T02:12:32.780Z,8.73
2023-04-18T02:15:05.543Z,8.71
2023-04-18T02:17:41.677Z,8.71
2023-04-18T02:20:14.781Z,8.70
2023-04-18T02:22:47.506Z,8.70
2023-04-18T02:25:19.388Z,8.70
2023-04-18T02:27:51.845Z,8.70
2023-04-18T02:30:23.799Z,8.69
2023-04-18T02:32:57.202Z,8.67
2023-04-18T02:35:30.059Z,8.66
2023-04-18T02:38:02.197Z,8.66
2023-04-18T02:41:04.804Z,8.66
2023-04-18T02:43:36.691Z,8.66
2023-04-18T02:46:08.781Z,8.65
2023-04-18T02:48:39.229Z,8.64
2023-04-18T02:51:11.675Z,8.65
2023-04-18T02:53:43.958Z,8.65
2023-04-18T02:56:18.077Z,8.65
2023-04-18T02:59:08.389Z,8.65
2023-04-18T03:02:06.361Z,8.66
2023-04-18T03:04:38.931Z,8.67
2023-04-18T03:07:12.949Z,8.67
2023-04-18T03:09:45.366Z,8.67
2023-04-18T03:12:27.096Z,8.66
2023-04-18T03:14:58.876Z,8.66
2023-04-18T03:17:31.725Z,8.67
2023-04-18T03:20:02.280Z,8.68
2023-04-18T03:22:34.006Z,8.67
2023-04-18T03:25:07.226Z,8.66
2023-04-18T03:27:48.225Z,8.66
2023-04-18T03:30:21.414Z,8.66
2023-04-18T03:33:02.848Z,8.66
2023-04-18T03:35:35.242Z,8.65
2023-04-18T03:38:07.305Z,8.64
2023-04-18T03:40:44.511Z,8.64
2023-04-18T03:43:22.650Z,8.64
2023-04-18T03:45:54.662Z,8.64
2023-04-18T03:48:26.893Z,8.64
2023-04-18T03:50:59.881Z,8.64
2023-04-18T03:53:31.658Z,8.62
2023-04-18T03:56:03.507Z,8.61
2023-04-18T03:58:53.423Z,8.60
2023-04-18T04:01:24.174Z,8.59
2023-04-18T04:03:56.737Z,8.58
2023-04-18T04:06:28.961Z,8.58
2023-04-18T04:09:00.869Z,8.58
2023-04-18T04:11:33.155Z,8.58
2023-04-18T04:14:05.196Z,8.57
2023-04-18T04:16:41.806Z,8.58
2023-04-18T04:19:15.020Z,8.56
2023-04-18T04:22:09.933Z,8.56
2023-04-18T04:24:42.883Z,8.56
2023-04-18T04:27:19.121Z,8.56
2023-04-18T04:29:52.262Z,8.56
2023-04-18T04:32:25.363Z,8.56
2023-04-18T04:34:58.588Z,8.55
2023-04-18T04:37:31.237Z,8.54
2023-04-18T04:40:15.971Z,8.53
2023-04-18T04:42:58.552Z,8.52
2023-04-18T04:45:36.388Z,8.51
2023-04-18T04:48:08.970Z,8.51
2023-04-18T04:50:42.176Z,8.52
2023-04-18T04:53:16.539Z,8.53
2023-04-18T04:55:48.556Z,8.54
2023-04-18T04:58:21.356Z,8.55
2023-04-18T05:01:12.397Z,8.57
2023-04-18T05:03:45.006Z,8.57
2023-04-18T05:06:20.540Z,8.59
2023-04-18T05:08:52.992Z,8.60
2023-04-18T05:11:24.899Z,8.60
2023-04-18T05:13:56.812Z,8.60
2023-04-18T05:16:28.984Z,8.62
2023-04-18T05:19:01.086Z,8.65
2023-04-18T05:21:32.831Z,8.69
2023-04-18T05:24:04.629Z,8.75
2023-04-18T05:26:36.456Z,8.79
2023-04-18T05:29:07.355Z,8.83
2023-04-18T05:31:39.188Z,8.87
2023-04-18T05:34:10.878Z,8.90
2023-04-18T05:36:42.596Z,8.94
2023-04-18T05:39:14.362Z,8.96
2023-04-18T05:41:46.115Z,9.00
2023-04-18T05:44:18.359Z,9.02
2023-04-18T05:46:52.007Z,9.03
2023-04-18T05:49:24.115Z,9.03
2023-04-18T05:51:54.466Z,9.04
2023-04-18T05:54:26.543Z,9.05
2023-04-18T05:56:57.223Z,9.04
2023-04-18T05:59:29.262Z,9.03
2023-04-18T06:01:59.555Z,9.03
2023-04-18T06:05:14.626Z,9.03
2023-04-18T06:08:27.038Z,9.02
2023-04-18T06:11:01.939Z,9.03
2023-04-18T06:13:34.153Z,9.04
2023-04-18T06:16:06.584Z,9.06
2023-04-18T06:18:38.361Z,9.09
2023-04-18T06:21:11.022Z,9.12
2023-04-18T06:23:42.863Z,9.14
2023-04-18T06:26:14.882Z,9.14
2023-04-18T06:28:46.730Z,9.12
2023-04-18T06:31:18.612Z,9.12
2023-04-18T06:33:50.460Z,9.10
2023-04-18T06:36:22.599Z,9.09
2023-04-18T06:38:54.338Z,9.10
2023-04-18T06:41:26.309Z,9.12
2023-04-18T06:44:02.938Z,9.12
2023-04-18T06:46:46.670Z,9.17
2023-04-18T06:49:18.696Z,9.26
2023-04-18T06:51:50.453Z,9.35
2023-04-18T06:54:22.734Z,9.44
2023-04-18T06:56:55.122Z,9.51
2023-04-18T06:59:28.033Z,9.62
2023-04-18T07:01:59.900Z,9.72
2023-04-18T07:04:31.669Z,9.81
2023-04-18T07:07:05.192Z,9.87
2023-04-18T07:09:37.285Z,9.90
2023-04-18T07:12:07.807Z,9.92
2023-04-18T07:14:39.872Z,9.92
2023-04-18T07:17:10.441Z,9.88
2023-04-18T07:19:43.748Z,9.83
2023-04-18T07:22:15.484Z,9.79
2023-04-18T07:24:48.446Z,9.75
2023-04-18T07:27:18.884Z,9.76
2023-04-18T07:29:50.676Z,9.77
2023-04-18T07:32:22.490Z,9.82
2023-04-18T07:34:54.658Z,9.90
2023-04-18T07:37:25.063Z,10.05
2023-04-18T07:39:56.939Z,10.20
2023-04-18T07:42:27.468Z,10.35
2023-04-18T07:45:00.641Z,10.44
2023-04-18T07:47:33.252Z,10.46
2023-04-18T07:50:06.581Z,10.44
2023-04-18T07:52:39.399Z,10.42
2023-04-18T07:55:12.484Z,10.43
2023-04-18T07:57:50.331Z,10.44
2023-04-18T08:00:23.280Z,10.47
2023-04-18T08:02:55.571Z,10.48
2023-04-18T08:05:27.919Z,10.53
2023-04-18T08:07:58.206Z,10.67
2023-04-18T08:10:30.267Z,10.84
2023-04-18T08:13:02.706Z,11.10
2023-04-18T08:15:34.854Z,11.37
2023-04-18T08:18:05.315Z,11.61
2023-04-18T08:20:38.691Z,11.69
2023-04-18T08:23:13.055Z,11.86
2023-04-18T08:25:45.859Z,12.11
2023-04-18T08:28:17.700Z,12.38
2023-04-18T08:30:50.397Z,12.57
2023-04-18T08:33:22.726Z,12.67
2023-04-18T08:35:55.038Z,12.63
2023-04-18T08:38:26.871Z,12.50
2023-04-18T08:41:00.966Z,12.44
2023-04-18T08:43:33.266Z,12.45
2023-04-18T08:46:05.148Z,12.52
2023-04-18T08:48:37.258Z,12.57
2023-04-18T08:51:09.486Z,12.52
2023-04-18T08:53:42.140Z,12.48
2023-04-18T08:56:14.767Z,12.47
2023-04-18T08:58:46.498Z,12.46
2023-04-18T09:01:18.559Z,12.48
2023-04-18T09:03:48.856Z,12.54
2023-04-18T09:06:20.650Z,12.56
2023-04-18T09:08:59.652Z,12.59
2023-04-18T09:11:34.406Z,12.66
2023-04-18T09:14:06.227Z,12.80
2023-04-18T09:16:47.990Z,12.93
2023-04-18T09:19:19.894Z,12.95
2023-04-18T09:22:00.456Z,12.89
2023-04-18T09:24:34.485Z,12.77
2023-04-18T09:27:15.073Z,12.70
2023-04-18T09:29:49.292Z,12.73
2023-04-18T09:32:25.261Z,12.81
2023-04-18T09:35:01.998Z,12.93
2023-04-18T09:37:36.162Z,13.20
2023-04-18T09:40:19.241Z,13.50
2023-04-18T09:42:54.367Z,13.69
2023-04-18T09:45:27.339Z,13.64
2023-04-18T09:47:59.779Z,13.55
2023-04-18T09:50:32.791Z,13.56
2023-04-18T09:53:05.059Z,13.59
2023-04-18T09:55:38.147Z,13.75
2023-04-18T09:58:10.585Z,13.79
2023-04-18T10:00:43.504Z,13.81
2023-04-18T10:03:21.004Z,14.00
2023-04-18T10:05:53.682Z,14.25
2023-04-18T10:08:27.498Z,14.40
2023-04-18T10:10:59.374Z,14.45
2023-04-18T10:13:30.702Z,14.53
2023-04-18T10:16:03.305Z,14.59
2023-04-18T10:18:35.188Z,14.54
2023-04-18T10:21:07.395Z,14.52
2023-04-18T10:23:40.711Z,14.77
2023-04-18T10:26:12.866Z,15.03
2023-04-18T10:28:56.899Z,15.28
2023-04-18T10:31:30.489Z,15.50
2023-04-18T10:34:07.497Z,15.57
2023-04-18T10:36:59.918Z,15.64
2023-04-18T10:39:31.980Z,15.67
2023-04-18T10:42:03.851Z,15.68
2023-04-18T10:44:35.650Z,15.69
2023-04-18T10:47:28.929Z,15.66
2023-04-18T10:50:06.192Z,15.64
2023-04-18T10:52:38.471Z,15.75
2023-04-18T10:55:29.574Z,15.77
2023-04-18T10:58:02.162Z,15.68
2023-04-18T11:00:34.819Z,15.63
2023-04-18T11:03:07.702Z,15.60
2023-04-18T11:05:39.995Z,15.54
2023-04-18T11:08:25.459Z,15.50
2023-04-18T11:11:03.235Z,15.42
2023-04-18T11:13:37.085Z,15.38
2023-04-18T11:16:09.785Z,15.39
2023-04-18T11:18:44.683Z,15.31
2023-04-18T11:21:16.791Z,15.18
2023-04-18T11:23:49.419Z,15.15
2023-04-18T11:26:21.788Z,15.11
2023-04-18T11:28:57.802Z,15.03
2023-04-18T11:31:29.609Z,14.99
2023-04-18T11:34:03.086Z,14.98
2023-04-18T11:36:38.544Z,15.00
2023-04-18T11:39:10.685Z,15.04
2023-04-18T11:41:50.445Z,15.12
2023-04-18T11:44:25.927Z,15.19
2023-04-18T11:46:57.817Z,15.27
2023-04-18T11:49:29.262Z,15.34
2023-04-18T11:52:02.237Z,15.42
2023-04-18T11:54:44.116Z,15.53
2023-04-18T11:57:26.851Z,15.64
2023-04-18T12:00:00.234Z,15.64
2023-04-18T12:02:43.191Z,15.60
2023-04-18T12:05:25.759Z,15.59
2023-04-18T12:08:05.816Z,15.63
2023-04-18T12:10:37.550Z,15.67
2023-04-18T12:13:11.049Z,15.72
2023-04-18T12:15:44.741Z,15.79
2023-04-18T12:18:19.543Z,15.85
2023-04-18T12:20:54.267Z,15.87
2023-04-18T12:23:34.379Z,15.88
2023-04-18T12:26:07.864Z,15.86
2023-04-18T12:28:40.047Z,15.80
2023-04-18T12:31:12.043Z,15.71
2023-04-18T12:33:43.843Z,15.67
2023-04-18T12:36:15.794Z,15.58
2023-04-18T12:38:46.774Z,15.54
2023-04-18T12:41:18.645Z,15.54
2023-04-18T12:43:48.999Z,15.59
2023-04-18T12:46:20.906Z,15.70
2023-04-18T12:48:52.698Z,15.87
2023-04-18T12:51:24.625Z,16.05
2023-04-18T12:53:56.602Z,16.03
2023-04-18T12:56:26.885Z,15.88
2023-04-18T12:58:58.821Z,15.77
2023-04-18T13:01:30.952Z,15.76
2023-04-18T13:04:11.991Z,15.81
2023-04-18T13:06:45.156Z,15.86
2023-04-18T13:09:16.660Z,15.93
2023-04-18T13:11:49.627Z,15.90
2023-04-18T13:14:21.649Z,15.86
2023-04-18T13:16:53.392Z,15.87
2023-04-18T13:19:23.711Z,15.87
2023-04-18T13:21:55.735Z,15.87
2023-04-18T13:24:27.561Z,15.88
2023-04-18T13:27:02.369Z,15.84
2023-04-18T13:29:34.255Z,15.75
2023-04-18T13:32:04.590Z,15.63
2023-04-18T13:34:38.855Z,15.57
2023-04-18T13:37:10.708Z,15.56
2023-04-18T13:39:43.063Z,15.60
2023-04-18T13:42:16.161Z,15.55
2023-04-18T13:44:48.637Z,15.46
2023-04-18T13:47:21.208Z,15.35
2023-04-18T13:49:53.672Z,15.25
2023-04-18T13:52:25.930Z,15.18
2023-04-18T13:54:57.961Z,15.10
2023-04-18T13:57:32.278Z,15.02
2023-04-18T14:00:06.645Z,14.97
2023-04-18T14:02:43.916Z,14.95
2023-04-18T14:05:15.974Z,14.99
2023-04-18T14:07:48.953Z,15.00
2023-04-18T14:10:21.704Z,14.99
2023-04-18T14:12:53.525Z,14.99
2023-04-18T14:15:24.233Z,15.00
2023-04-18T14:17:57.749Z,14.98
2023-04-18T14:20:35.463Z,14.96
2023-04-18T14:23:08.862Z,14.98
2023-04-18T14:25:42.430Z,14.99
2023-04-18T14:28:15.789Z,15.01
2023-04-18T14:30:48.871Z,15.03
2023-04-18T14:33:21.637Z,15.02
2023-04-18T14:35:55.284Z,14.99
2023-04-18T14:38:27.339Z,14.96
2023-04-18T14:41:07.369Z,14.93
2023-04-18T14:43:39.271Z,14.93
2023-04-18T14:46:14.200Z,15.00
2023-04-18T14:48:47.482Z,15.03
2023-04-18T14:51:19.866Z,15.07
2023-04-18T14:53:52.218Z,15.08
2023-04-18T14:56:24.423Z,15.07
2023-04-18T14:58:56.215Z,15.08
2023-04-18T15:01:28.106Z,15.06
2023-04-18T15:03:59.595Z,15.06
2023-04-18T15:06:32.699Z,15.02
2023-04-18T15:09:04.780Z,14.95
2023-04-18T15:11:36.685Z,14.88
2023-04-18T15:14:09.766Z,14.83
2023-04-18T15:16:41.776Z,14.79
2023-04-18T15:19:13.644Z,14.77
2023-04-18T15:21:45.687Z,14.73
2023-04-18T15:24:16.594Z,14.67
2023-04-18T15:26:49.118Z,14.62
2023-04-18T15:29:21.186Z,14.57
2023-04-18T15:31:52.325Z,14.50
2023-04-18T15:34:25.293Z,14.43
2023-04-18T15:36:57.202Z,14.40
2023-04-18T15:39:27.463Z,14.41
2023-04-18T15:41:59.294Z,14.40
2023-04-18T15:44:31.731Z,14.39
2023-04-18T15:47:03.572Z,14.34
2023-04-18T15:49:36.227Z,14.25
2023-04-18T15:52:08.531Z,14.18
2023-04-18T15:54:42.877Z,14.13
2023-04-18T15:57:16.087Z,14.05
2023-04-18T15:59:47.879Z,13.99
2023-04-18T16:02:20.130Z,13.91
2023-04-18T16:04:52.110Z,13.83
2023-04-18T16:07:23.380Z,13.77
2023-04-18T16:09:55.636Z,13.67
2023-04-18T16:12:30.514Z,13.60
2023-04-18T16:15:02.565Z,13.55
2023-04-18T16:17:35.145Z,13.52
2023-04-18T16:20:10.742Z,13.49
2023-04-18T16:22:44.203Z,13.43
2023-04-18T16:25:16.729Z,13.39
2023-04-18T16:27:48.729Z,13.35
2023-04-18T16:30:21.216Z,13.31
2023-04-18T16:32:54.436Z,13.28
2023-04-18T16:35:27.057Z,13.25
2023-04-18T16:37:59.371Z,13.23
2023-04-18T16:40:32.111Z,13.22
2023-04-18T16:43:04.226Z,13.21
2023-04-18T16:45:36.425Z,13.18
2023-04-18T16:48:09.508Z,13.14
2023-04-18T16:50:41.389Z,13.11
2023-04-18T16:53:13.470Z,13.08
2023-04-18T16:55:45.549Z,13.06
2023-04-18T16:58:15.888Z,13.04
2023-04-18T17:00:48.206Z,13.01
2023-04-18T17:03:18.619Z,12.99
2023-04-18T17:05:50.576Z,12.95
2023-04-18T17:08:22.514Z,12.94
2023-04-18T17:10:55.687Z,12.92
2023-04-18T17:13:28.008Z,12.89
2023-04-18T17:16:00.807Z,12.87
2023-04-18T17:18:33.557Z,12.87
2023-04-18T17:21:05.752Z,12.85
2023-04-18T17:23:38.443Z,12.82
2023-04-18T17:26:10.249Z,12.79
2023-04-18T17:28:42.326Z,12.76
2023-04-18T17:31:15.883Z,12.73
2023-04-18T17:33:47.933Z,12.70
2023-04-18T17:36:20.464Z,12.67
2023-04-18T17:38:51.326Z,12.64
2023-04-18T17:41:23.434Z,12.61
2023-04-18T17:43:58.152Z,12.58
2023-04-18T17:46:30.380Z,12.55
2023-04-18T17:49:02.288Z,12.53
2023-04-18T17:51:34.278Z,12.49
2023-04-18T17:54:05.522Z,12.46
2023-04-18T17:56:37.435Z,12.41
2023-04-18T17:59:09.790Z,12.38
2023-04-18T18:01:42.305Z,12.34
2023-04-18T18:04:14.609Z,12.32
2023-04-18T18:06:57.462Z,12.29
2023-04-18T18:09:27.794Z,12.27
2023-04-18T18:11:59.767Z,12.25
2023-04-18T18:14:31.982Z,12.24
2023-04-18T18:17:02.617Z,12.23
2023-04-18T18:19:35.305Z,12.22
2023-04-18T18:22:09.564Z,12.21
2023-04-18T18:24:41.736Z,12.21
2023-04-18T18:27:12.161Z,12.20
2023-04-18T18:29:44.629Z,12.20
2023-04-18T18:32:15.217Z,12.19
2023-04-18T18:34:47.789Z,12.17
2023-04-18T18:37:19.654Z,12.18
2023-04-18T18:39:50.930Z,12.17
2023-04-18T18:42:23.430Z,12.14
2023-04-18T18:44:57.754Z,12.13
2023-04-18T18:47:35.486Z,12.12
2023-04-18T18:50:10.315Z,12.11
2023-04-18T18:52:46.656Z,12.09
2023-04-18T18:55:18.444Z,12.08
2023-04-18T18:57:54.451Z,12.06
2023-04-18T19:00:35.865Z,12.05
2023-04-18T19:03:09.673Z,12.05
2023-04-18T19:05:45.064Z,12.04
2023-04-18T19:08:19.398Z,12.02
2023-04-18T19:10:51.733Z,12.02
2023-04-18T19:13:24.362Z,12.01
2023-04-18T19:15:56.204Z,12.01
2023-04-18T19:18:28.077Z,12.02
2023-04-18T19:20:59.895Z,12.02
2023-04-18T19:23:31.949Z,11.99
2023-04-18T19:26:03.690Z,11.98
2023-04-18T19:28:37.682Z,11.96
2023-04-18T19:31:18.067Z,11.95
2023-04-18T19:33:55.364Z,11.94
2023-04-18T19:36:30.954Z,11.95
2023-04-18T19:39:02.920Z,11.96
2023-04-18T19:41:39.742Z,11.93
2023-04-18T19:44:18.056Z,11.89
2023-04-18T19:46:55.625Z,11.86
2023-04-18T19:49:28.795Z,11.83
2023-04-18T19:52:00.562Z,11.81
2023-04-18T19:54:34.389Z,11.80
2023-04-18T19:57:08.082Z,11.77
2023-04-18T19:59:42.502Z,11.75
2023-04-18T20:02:17.190Z,11.74
2023-04-18T20:04:49.571Z,11.71
2023-04-18T20:07:25.531Z,11.68
2023-04-18T20:10:01.286Z,11.65
2023-04-18T20:12:33.967Z,11.63
2023-04-18T20:15:11.593Z,11.60
2023-04-18T20:17:44.750Z,11.58
2023-04-18T20:20:16.790Z,11.56
2023-04-18T20:22:50.684Z,11.54
2023-04-18T20:25:22.715Z,11.52
2023-04-18T20:27:54.784Z,11.49
2023-04-18T20:30:25.278Z,11.47
2023-04-18T20:32:57.268Z,11.40
2023-04-18T20:35:28.166Z,11.36
2023-04-18T20:38:00.868Z,11.30
2023-04-18T20:40:33.358Z,11.26
2023-04-18T20:43:06.821Z,11.23
2023-04-18T20:45:43.041Z,11.20
2023-04-18T20:48:14.913Z,11.19
2023-04-18T20:50:51.433Z,11.17
2023-04-18T20:53:26.064Z,11.16
2023-04-18T20:55:57.838Z,11.15
2023-04-18T20:58:30.367Z,11.14
2023-04-18T21:01:02.206Z,11.13
2023-04-18T21:03:34.318Z,11.10
2023-04-18T21:06:05.057Z,11.10
2023-04-18T21:08:37.995Z,11.11
2023-04-18T21:11:10.020Z,11.16
2023-04-18T21:13:41.894Z,11.19
2023-04-18T21:16:13.670Z,11.20
2023-04-18T21:18:45.539Z,11.26
2023-04-18T21:21:17.418Z,11.28
2023-04-18T21:23:49.127Z,11.29
2023-04-18T21:26:21.134Z,11.32
2023-04-18T21:28:55.310Z,11.35
2023-04-18T21:31:27.610Z,11.34
2023-04-18T21:34:00.457Z,11.31
2023-04-18T21:36:32.932Z,11.31
2023-04-18T21:39:05.021Z,11.31
2023-04-18T21:41:35.461Z,11.31
2023-04-18T21:44:07.455Z,11.31
2023-04-18T21:46:37.879Z,11.29
2023-04-18T21:49:09.652Z,11.27
2023-04-18T21:51:41.529Z,11.26
2023-04-18T21:54:13.508Z,11.26
2023-04-18T21:56:44.029Z,11.26
2023-04-18T21:59:15.746Z,11.24
2023-04-18T22:01:47.618Z,11.22
2023-04-18T22:04:21.150Z,11.20
2023-04-18T22:06:54.370Z,11.17
2023-04-18T22:09:26.209Z,11.15
2023-04-18T22:11:57.937Z,11.12
2023-04-18T22:14:29.758Z,11.10
2023-04-18T22:17:03.245Z,11.08
2023-04-18T22:19:35.782Z,11.05
2023-04-18T22:22:07.503Z,11.00
2023-04-18T22:24:39.452Z,10.96
2023-04-18T22:27:11.224Z,10.93
2023-04-18T22:29:43.121Z,10.90
2023-04-18T22:32:14.841Z,10.88
2023-04-18T22:34:46.871Z,10.86
2023-04-18T22:37:18.641Z,10.85
2023-04-18T22:39:50.397Z,10.82
2023-04-18T22:42:20.986Z,10.81
2023-04-18T22:44:52.826Z,10.79
2023-04-18T22:47:24.670Z,10.76
2023-04-18T22:49:56.674Z,10.73
2023-04-18T22:52:27.118Z,10.70
2023-04-18T22:54:58.889Z,10.68
2023-04-18T22:57:30.904Z,10.65
2023-04-18T23:00:01.425Z,10.63
2023-04-18T23:02:33.583Z,10.60
2023-04-18T23:05:08.191Z,10.59
2023-04-18T23:07:39.949Z,10.57
2023-04-18T23:10:13.773Z,10.56
2023-04-18T23:12:45.519Z,10.55
2023-04-18T23:15:17.258Z,10.56
2023-04-18T23:17:49.130Z,10.56
2023-04-18T23:20:21.274Z,10.54
2023-04-18T23:22:53.767Z,10.52
2023-04-18T23:25:25.600Z,10.50
2023-04-18T23:27:57.335Z,10.48
2023-04-18T23:30:29.074Z,10.46
2023-04-18T23:33:00.854Z,10.45
2023-04-18T23:35:32.814Z,10.43
2023-04-18T23:38:03.638Z,10.41
2023-04-18T23:40:35.557Z,10.37
2023-04-18T23:43:07.332Z,10.35
2023-04-18T23:45:39.070Z,10.33
2023-04-18T23:48:10.829Z,10.31
2023-04-18T23:50:48.323Z,10.30
2023-04-18T23:53:20.165Z,10.29
2023-04-18T23:55:52.240Z,10.29
2023-04-18T23:58:22.416Z,10.29
